sensor_id;sensor_type;location;lat;lon;timestamp;temperature;humidity
758;DHT22;363;48.764;9.172;2023-06-22T00:01:17;22.00;99.90
758;DHT22;363;48.764;9.172;2023-06-22T00:03:42;22.10;99.90
758;DHT22;363;48.764;9.172;2023-06-22T00:06:08;22.20;99.90
758;DHT22;363;48.764;9.172;2023-06-22T00:08:33;22.20;99.90
758;DHT22;363;48.764;9.172;2023-06-22T00:10:59;22.00;99.90
758;DHT22;363;48.764;9.172;2023-06-22T00:13:25;22.00;99.90
758;DHT22;363;48.764;9.172;2023-06-22T00:15:50;22.00;99.90
758;DHT22;363;48.764;9.172;2023-06-22T00:18:16;21.90;99.90
758;DHT22;363;48.764;9.172;2023-06-22T00:20:41;21.70;99.90
758;DHT22;363;48.764;9.172;2023-06-22T00:23:07;21.60;99.90
758;DHT22;363;48.764;9.172;2023-06-22T00:25:38;21.60;99.90
758;DHT22;363;48.764;9.172;2023-06-22T00:28:07;21.70;99.90
758;DHT22;363;48.764;9.172;2023-06-22T00:30:33;21.70;99.90
758;DHT22;363;48.764;9.172;2023-06-22T00:32:59;21.50;99.90
758;DHT22;363;48.764;9.172;2023-06-22T00:35:26;21.40;99.90
758;DHT22;363;48.764;9.172;2023-06-22T00:38:00;21.30;99.90
758;DHT22;363;48.764;9.172;2023-06-22T00:40:27;21.30;99.90
758;DHT22;363;48.764;9.172;2023-06-22T00:42:53;21.40;99.90
758;DHT22;363;48.764;9.172;2023-06-22T00:45:19;21.50;99.90
758;DHT22;363;48.764;9.172;2023-06-22T00:47:45;21.40;99.90
758;DHT22;363;48.764;9.172;2023-06-22T00:50:17;21.10;99.90
758;DHT22;363;48.764;9.172;2023-06-22T00:52:44;21.10;99.90
758;DHT22;363;48.764;9.172;2023-06-22T00:55:09;21.10;99.90
758;DHT22;363;48.764;9.172;2023-06-22T00:57:35;21.10;99.90
758;DHT22;363;48.764;9.172;2023-06-22T01:00:03;21.00;99.90
758;DHT22;363;48.764;9.172;2023-06-22T01:02:32;20.90;99.90
758;DHT22;363;48.764;9.172;2023-06-22T01:04:57;20.80;99.90
758;DHT22;363;48.764;9.172;2023-06-22T01:07:35;20.70;99.90
758;DHT22;363;48.764;9.172;2023-06-22T01:12:50;20.80;99.90
758;DHT22;363;48.764;9.172;2023-06-22T01:15:32;21.00;99.90
758;DHT22;363;48.764;9.172;2023-06-22T01:17:59;21.00;99.90
758;DHT22;363;48.764;9.172;2023-06-22T01:20:25;21.00;99.90
758;DHT22;363;48.764;9.172;2023-06-22T01:23:04;21.00;99.90
758;DHT22;363;48.764;9.172;2023-06-22T01:25:37;21.30;99.90
758;DHT22;363;48.764;9.172;2023-06-22T01:28:29;21.70;99.90
758;DHT22;363;48.764;9.172;2023-06-22T01:30:57;21.70;99.90
758;DHT22;363;48.764;9.172;2023-06-22T01:33:37;21.60;99.90
758;DHT22;363;48.764;9.172;2023-06-22T01:36:03;21.70;99.90
758;DHT22;363;48.764;9.172;2023-06-22T01:38:29;22.00;99.90
758;DHT22;363;48.764;9.172;2023-06-22T01:40:57;22.10;99.90
758;DHT22;363;48.764;9.172;2023-06-22T01:43:25;22.20;99.90
758;DHT22;363;48.764;9.172;2023-06-22T01:45:52;22.10;99.90
758;DHT22;363;48.764;9.172;2023-06-22T01:48:19;22.20;99.90
758;DHT22;363;48.764;9.172;2023-06-22T01:50:45;22.30;99.90
758;DHT22;363;48.764;9.172;2023-06-22T01:53:11;22.10;99.90
758;DHT22;363;48.764;9.172;2023-06-22T01:55:36;22.20;99.90
758;DHT22;363;48.764;9.172;2023-06-22T01:58:02;22.40;99.90
758;DHT22;363;48.764;9.172;2023-06-22T02:00:31;22.30;99.90
758;DHT22;363;48.764;9.172;2023-06-22T02:03:05;21.90;99.90
758;DHT22;363;48.764;9.172;2023-06-22T02:05:43;21.70;99.90
758;DHT22;363;48.764;9.172;2023-06-22T02:08:23;21.60;99.90
758;DHT22;363;48.764;9.172;2023-06-22T02:10:52;21.40;99.90
758;DHT22;363;48.764;9.172;2023-06-22T02:13:19;21.30;99.90
758;DHT22;363;48.764;9.172;2023-06-22T02:15:45;21.30;99.90
758;DHT22;363;48.764;9.172;2023-06-22T02:18:12;21.20;99.90
758;DHT22;363;48.764;9.172;2023-06-22T02:20:39;21.30;99.90
758;DHT22;363;48.764;9.172;2023-06-22T02:23:06;21.40;99.90
758;DHT22;363;48.764;9.172;2023-06-22T02:25:32;21.70;99.90
758;DHT22;363;48.764;9.172;2023-06-22T02:27:58;22.00;99.90
758;DHT22;363;48.764;9.172;2023-06-22T02:30:24;21.80;99.90
758;DHT22;363;48.764;9.172;2023-06-22T02:32:49;21.60;99.90
758;DHT22;363;48.764;9.172;2023-06-22T02:35:29;21.60;99.90
758;DHT22;363;48.764;9.172;2023-06-22T02:37:57;21.60;99.90
758;DHT22;363;48.764;9.172;2023-06-22T02:40:23;21.60;99.90
758;DHT22;363;48.764;9.172;2023-06-22T02:42:49;21.60;99.90
758;DHT22;363;48.764;9.172;2023-06-22T02:45:14;21.40;99.90
758;DHT22;363;48.764;9.172;2023-06-22T02:47:40;21.30;99.90
758;DHT22;363;48.764;9.172;2023-06-22T02:50:06;21.40;99.90
758;DHT22;363;48.764;9.172;2023-06-22T02:52:31;21.70;99.90
758;DHT22;363;48.764;9.172;2023-06-22T02:54:57;22.10;99.90
758;DHT22;363;48.764;9.172;2023-06-22T02:57:22;21.90;99.90
758;DHT22;363;48.764;9.172;2023-06-22T02:59:48;21.60;99.90
758;DHT22;363;48.764;9.172;2023-06-22T03:02:13;21.30;99.90
758;DHT22;363;48.764;9.172;2023-06-22T03:04:39;21.10;99.90
758;DHT22;363;48.764;9.172;2023-06-22T03:07:05;21.00;99.90
758;DHT22;363;48.764;9.172;2023-06-22T03:09:30;21.10;99.90
758;DHT22;363;48.764;9.172;2023-06-22T03:11:56;21.40;99.90
758;DHT22;363;48.764;9.172;2023-06-22T03:14:22;21.70;99.90
758;DHT22;363;48.764;9.172;2023-06-22T03:16:48;21.50;99.90
758;DHT22;363;48.764;9.172;2023-06-22T03:19:14;21.20;99.90
758;DHT22;363;48.764;9.172;2023-06-22T03:21:39;21.00;99.90
758;DHT22;363;48.764;9.172;2023-06-22T03:24:06;20.90;99.90
758;DHT22;363;48.764;9.172;2023-06-22T03:26:32;21.00;99.90
758;DHT22;363;48.764;9.172;2023-06-22T03:28:57;21.40;99.90
758;DHT22;363;48.764;9.172;2023-06-22T03:31:23;21.80;99.90
758;DHT22;363;48.764;9.172;2023-06-22T03:33:49;21.80;99.90
758;DHT22;363;48.764;9.172;2023-06-22T03:36:16;21.50;99.90
758;DHT22;363;48.764;9.172;2023-06-22T03:38:49;21.20;99.90
758;DHT22;363;48.764;9.172;2023-06-22T03:41:14;21.30;99.90
758;DHT22;363;48.764;9.172;2023-06-22T03:43:40;21.20;99.90
758;DHT22;363;48.764;9.172;2023-06-22T03:46:06;21.20;99.90
758;DHT22;363;48.764;9.172;2023-06-22T03:48:31;21.30;99.90
758;DHT22;363;48.764;9.172;2023-06-22T03:50:59;21.20;99.90
758;DHT22;363;48.764;9.172;2023-06-22T03:53:25;21.20;99.90
758;DHT22;363;48.764;9.172;2023-06-22T03:55:51;21.10;99.90
758;DHT22;363;48.764;9.172;2023-06-22T03:58:19;21.20;99.90
758;DHT22;363;48.764;9.172;2023-06-22T04:00:49;21.10;99.90
758;DHT22;363;48.764;9.172;2023-06-22T04:03:15;21.10;99.90
758;DHT22;363;48.764;9.172;2023-06-22T04:05:41;21.10;99.90
758;DHT22;363;48.764;9.172;2023-06-22T04:08:07;21.20;99.90
758;DHT22;363;48.764;9.172;2023-06-22T04:10:33;21.20;99.90
758;DHT22;363;48.764;9.172;2023-06-22T04:13:00;21.10;99.90
758;DHT22;363;48.764;9.172;2023-06-22T04:15:25;21.10;99.90
758;DHT22;363;48.764;9.172;2023-06-22T04:17:51;21.10;99.90
758;DHT22;363;48.764;9.172;2023-06-22T04:20:17;21.20;99.90
758;DHT22;363;48.764;9.172;2023-06-22T04:22:42;21.20;99.90
758;DHT22;363;48.764;9.172;2023-06-22T04:25:08;21.30;99.90
758;DHT22;363;48.764;9.172;2023-06-22T04:27:34;21.30;99.90
758;DHT22;363;48.764;9.172;2023-06-22T04:30:03;21.20;99.90
758;DHT22;363;48.764;9.172;2023-06-22T04:32:29;21.30;99.90
758;DHT22;363;48.764;9.172;2023-06-22T04:34:54;21.40;99.90
758;DHT22;363;48.764;9.172;2023-06-22T04:37:20;21.40;99.90
758;DHT22;363;48.764;9.172;2023-06-22T04:39:49;21.50;99.90
758;DHT22;363;48.764;9.172;2023-06-22T04:42:14;21.50;99.90
758;DHT22;363;48.764;9.172;2023-06-22T04:44:40;21.40;99.90
758;DHT22;363;48.764;9.172;2023-06-22T04:47:07;21.50;99.90
758;DHT22;363;48.764;9.172;2023-06-22T04:49:35;21.60;99.90
758;DHT22;363;48.764;9.172;2023-06-22T04:52:07;21.70;99.90
758;DHT22;363;48.764;9.172;2023-06-22T04:54:34;21.70;99.90
758;DHT22;363;48.764;9.172;2023-06-22T04:57:01;21.70;99.90
758;DHT22;363;48.764;9.172;2023-06-22T04:59:28;21.70;99.90
758;DHT22;363;48.764;9.172;2023-06-22T05:01:59;21.90;99.90
758;DHT22;363;48.764;9.172;2023-06-22T05:04:26;22.10;99.90
758;DHT22;363;48.764;9.172;2023-06-22T05:06:53;22.20;99.90
758;DHT22;363;48.764;9.172;2023-06-22T05:09:19;22.20;99.90
758;DHT22;363;48.764;9.172;2023-06-22T05:11:45;22.40;99.90
758;DHT22;363;48.764;9.172;2023-06-22T05:14:11;22.50;99.90
758;DHT22;363;48.764;9.172;2023-06-22T05:16:38;22.50;99.90
758;DHT22;363;48.764;9.172;2023-06-22T05:19:03;22.50;99.90
758;DHT22;363;48.764;9.172;2023-06-22T05:21:30;22.60;99.90
758;DHT22;363;48.764;9.172;2023-06-22T05:23:56;22.60;99.90
758;DHT22;363;48.764;9.172;2023-06-22T05:26:26;22.70;99.90
758;DHT22;363;48.764;9.172;2023-06-22T05:28:52;22.80;99.90
758;DHT22;363;48.764;9.172;2023-06-22T05:31:18;22.90;99.90
758;DHT22;363;48.764;9.172;2023-06-22T05:33:48;23.00;99.90
758;DHT22;363;48.764;9.172;2023-06-22T05:36:15;22.80;99.90
758;DHT22;363;48.764;9.172;2023-06-22T05:38:41;22.90;99.90
758;DHT22;363;48.764;9.172;2023-06-22T05:41:07;23.00;99.90
758;DHT22;363;48.764;9.172;2023-06-22T05:43:33;23.10;99.90
758;DHT22;363;48.764;9.172;2023-06-22T05:46:00;23.20;99.90
758;DHT22;363;48.764;9.172;2023-06-22T05:48:26;23.20;99.90
758;DHT22;363;48.764;9.172;2023-06-22T05:50:51;23.20;99.90
758;DHT22;363;48.764;9.172;2023-06-22T05:53:17;23.30;99.90
758;DHT22;363;48.764;9.172;2023-06-22T05:55:42;23.40;99.90
758;DHT22;363;48.764;9.172;2023-06-22T05:58:08;23.60;99.90
758;DHT22;363;48.764;9.172;2023-06-22T06:00:34;23.60;99.90
758;DHT22;363;48.764;9.172;2023-06-22T06:03:00;23.50;99.90
758;DHT22;363;48.764;9.172;2023-06-22T06:05:33;23.60;99.90
758;DHT22;363;48.764;9.172;2023-06-22T06:08:03;23.60;99.90
758;DHT22;363;48.764;9.172;2023-06-22T06:10:30;23.50;99.90
758;DHT22;363;48.764;9.172;2023-06-22T06:12:56;23.50;99.90
758;DHT22;363;48.764;9.172;2023-06-22T06:15:22;23.60;99.90
758;DHT22;363;48.764;9.172;2023-06-22T06:17:48;23.60;99.90
758;DHT22;363;48.764;9.172;2023-06-22T06:20:15;23.50;99.90
758;DHT22;363;48.764;9.172;2023-06-22T06:22:40;24.00;99.90
758;DHT22;363;48.764;9.172;2023-06-22T06:25:08;23.80;99.90
758;DHT22;363;48.764;9.172;2023-06-22T06:27:34;23.90;99.90
758;DHT22;363;48.764;9.172;2023-06-22T06:29:59;24.10;99.90
758;DHT22;363;48.764;9.172;2023-06-22T06:32:25;24.30;99.90
758;DHT22;363;48.764;9.172;2023-06-22T06:34:50;24.30;99.90
758;DHT22;363;48.764;9.172;2023-06-22T06:37:17;24.20;99.90
758;DHT22;363;48.764;9.172;2023-06-22T06:39:44;24.40;99.90
758;DHT22;363;48.764;9.172;2023-06-22T06:42:09;24.60;99.90
758;DHT22;363;48.764;9.172;2023-06-22T06:44:36;24.80;99.90
758;DHT22;363;48.764;9.172;2023-06-22T06:47:03;24.70;99.90
758;DHT22;363;48.764;9.172;2023-06-22T06:49:29;25.00;99.90
758;DHT22;363;48.764;9.172;2023-06-22T06:51:55;25.10;99.90
758;DHT22;363;48.764;9.172;2023-06-22T06:54:21;25.10;99.90
758;DHT22;363;48.764;9.172;2023-06-22T06:56:47;25.20;99.90
758;DHT22;363;48.764;9.172;2023-06-22T06:59:14;25.40;99.90
758;DHT22;363;48.764;9.172;2023-06-22T07:01:41;25.80;99.90
758;DHT22;363;48.764;9.172;2023-06-22T07:04:06;26.10;99.90
758;DHT22;363;48.764;9.172;2023-06-22T07:06:32;27.30;99.20
758;DHT22;363;48.764;9.172;2023-06-22T07:08:59;28.90;95.40
758;DHT22;363;48.764;9.172;2023-06-22T07:11:25;29.50;94.30
758;DHT22;363;48.764;9.172;2023-06-22T07:13:50;31.30;90.30
758;DHT22;363;48.764;9.172;2023-06-22T07:16:16;32.90;85.60
758;DHT22;363;48.764;9.172;2023-06-22T07:18:41;33.10;79.90
758;DHT22;363;48.764;9.172;2023-06-22T07:21:07;34.40;77.90
758;DHT22;363;48.764;9.172;2023-06-22T07:23:33;35.00;73.70
758;DHT22;363;48.764;9.172;2023-06-22T07:25:59;35.70;70.80
758;DHT22;363;48.764;9.172;2023-06-22T07:28:28;37.30;66.60
758;DHT22;363;48.764;9.172;2023-06-22T07:30:56;37.80;62.40
758;DHT22;363;48.764;9.172;2023-06-22T07:33:22;38.40;59.20
758;DHT22;363;48.764;9.172;2023-06-22T07:35:48;39.70;56.40
758;DHT22;363;48.764;9.172;2023-06-22T07:38:14;39.00;56.50
758;DHT22;363;48.764;9.172;2023-06-22T07:40:40;40.40;54.10
758;DHT22;363;48.764;9.172;2023-06-22T07:43:07;40.90;51.90
758;DHT22;363;48.764;9.172;2023-06-22T07:45:32;40.80;50.10
758;DHT22;363;48.764;9.172;2023-06-22T07:48:00;42.70;48.80
758;DHT22;363;48.764;9.172;2023-06-22T07:50:26;43.40;46.60
758;DHT22;363;48.764;9.172;2023-06-22T07:52:51;43.30;45.30
758;DHT22;363;48.764;9.172;2023-06-22T07:55:18;43.50;44.40
758;DHT22;363;48.764;9.172;2023-06-22T07:57:43;42.40;44.90
758;DHT22;363;48.764;9.172;2023-06-22T08:00:09;41.60;46.10
758;DHT22;363;48.764;9.172;2023-06-22T08:02:41;41.70;45.90
758;DHT22;363;48.764;9.172;2023-06-22T08:05:10;41.00;47.00
758;DHT22;363;48.764;9.172;2023-06-22T08:07:36;41.00;46.50
758;DHT22;363;48.764;9.172;2023-06-22T08:10:03;40.10;46.20
758;DHT22;363;48.764;9.172;2023-06-22T08:12:29;40.40;46.80
758;DHT22;363;48.764;9.172;2023-06-22T08:14:55;41.00;46.40
758;DHT22;363;48.764;9.172;2023-06-22T08:17:25;42.40;44.90
758;DHT22;363;48.764;9.172;2023-06-22T08:19:51;43.60;43.00
758;DHT22;363;48.764;9.172;2023-06-22T08:22:17;42.60;42.90
758;DHT22;363;48.764;9.172;2023-06-22T08:24:43;41.30;44.30
758;DHT22;363;48.764;9.172;2023-06-22T08:27:10;40.00;45.90
758;DHT22;363;48.764;9.172;2023-06-22T08:29:38;38.10;48.80
758;DHT22;363;48.764;9.172;2023-06-22T08:32:04;37.10;51.00
758;DHT22;363;48.764;9.172;2023-06-22T08:34:30;36.20;51.80
758;DHT22;363;48.764;9.172;2023-06-22T08:36:56;35.60;54.10
758;DHT22;363;48.764;9.172;2023-06-22T08:39:22;34.80;55.20
758;DHT22;363;48.764;9.172;2023-06-22T08:41:48;35.10;55.00
758;DHT22;363;48.764;9.172;2023-06-22T08:44:14;35.50;54.40
758;DHT22;363;48.764;9.172;2023-06-22T08:46:39;35.10;54.80
758;DHT22;363;48.764;9.172;2023-06-22T08:49:07;35.10;54.80
758;DHT22;363;48.764;9.172;2023-06-22T08:51:33;36.00;54.10
758;DHT22;363;48.764;9.172;2023-06-22T08:53:58;35.40;54.80
758;DHT22;363;48.764;9.172;2023-06-22T08:56:24;35.10;54.90
758;DHT22;363;48.764;9.172;2023-06-22T08:58:49;34.60;56.40
758;DHT22;363;48.764;9.172;2023-06-22T09:01:15;35.60;56.00
758;DHT22;363;48.764;9.172;2023-06-22T09:03:41;37.80;52.80
758;DHT22;363;48.764;9.172;2023-06-22T09:06:07;37.60;51.60
758;DHT22;363;48.764;9.172;2023-06-22T09:08:35;37.20;51.70
758;DHT22;363;48.764;9.172;2023-06-22T09:11:00;35.90;54.30
758;DHT22;363;48.764;9.172;2023-06-22T09:13:27;35.20;55.20
758;DHT22;363;48.764;9.172;2023-06-22T09:15:53;34.70;55.70
758;DHT22;363;48.764;9.172;2023-06-22T09:18:19;34.80;56.60
758;DHT22;363;48.764;9.172;2023-06-22T09:20:45;36.00;55.20
758;DHT22;363;48.764;9.172;2023-06-22T09:23:10;37.10;53.50
758;DHT22;363;48.764;9.172;2023-06-22T09:25:36;38.40;50.80
758;DHT22;363;48.764;9.172;2023-06-22T09:28:02;39.40;49.10
758;DHT22;363;48.764;9.172;2023-06-22T09:30:27;40.00;48.40
758;DHT22;363;48.764;9.172;2023-06-22T09:32:53;40.50;47.10
758;DHT22;363;48.764;9.172;2023-06-22T09:35:19;40.80;46.20
758;DHT22;363;48.764;9.172;2023-06-22T09:37:45;41.50;45.50
758;DHT22;363;48.764;9.172;2023-06-22T09:40:11;41.90;44.80
758;DHT22;363;48.764;9.172;2023-06-22T09:42:38;41.90;42.90
758;DHT22;363;48.764;9.172;2023-06-22T09:45:05;42.20;44.20
758;DHT22;363;48.764;9.172;2023-06-22T09:47:31;41.30;44.10
758;DHT22;363;48.764;9.172;2023-06-22T09:49:56;40.80;43.70
758;DHT22;363;48.764;9.172;2023-06-22T09:52:24;40.90;45.20
758;DHT22;363;48.764;9.172;2023-06-22T09:54:50;41.50;44.50
758;DHT22;363;48.764;9.172;2023-06-22T09:57:15;40.40;44.60
758;DHT22;363;48.764;9.172;2023-06-22T09:59:41;40.80;45.00
758;DHT22;363;48.764;9.172;2023-06-22T10:02:07;40.80;44.60
758;DHT22;363;48.764;9.172;2023-06-22T10:04:33;40.80;44.60
758;DHT22;363;48.764;9.172;2023-06-22T10:06:59;40.30;45.40
758;DHT22;363;48.764;9.172;2023-06-22T10:09:25;38.90;47.50
758;DHT22;363;48.764;9.172;2023-06-22T10:11:50;38.50;48.70
758;DHT22;363;48.764;9.172;2023-06-22T10:14:16;37.70;49.60
758;DHT22;363;48.764;9.172;2023-06-22T10:16:42;37.00;51.40
758;DHT22;363;48.764;9.172;2023-06-22T10:19:08;36.30;52.60
758;DHT22;363;48.764;9.172;2023-06-22T10:21:33;35.60;53.10
758;DHT22;363;48.764;9.172;2023-06-22T10:24:00;35.50;53.80
758;DHT22;363;48.764;9.172;2023-06-22T10:26:32;35.40;54.00
758;DHT22;363;48.764;9.172;2023-06-22T10:28:57;35.30;54.10
758;DHT22;363;48.764;9.172;2023-06-22T10:31:23;35.20;54.70
758;DHT22;363;48.764;9.172;2023-06-22T10:33:48;35.50;54.90
758;DHT22;363;48.764;9.172;2023-06-22T10:36:15;36.30;53.50
758;DHT22;363;48.764;9.172;2023-06-22T10:38:40;36.60;52.80
758;DHT22;363;48.764;9.172;2023-06-22T10:41:06;36.90;53.20
758;DHT22;363;48.764;9.172;2023-06-22T10:43:32;37.80;51.50
758;DHT22;363;48.764;9.172;2023-06-22T10:45:58;37.50;50.90
758;DHT22;363;48.764;9.172;2023-06-22T10:48:23;38.00;50.50
758;DHT22;363;48.764;9.172;2023-06-22T10:50:49;38.60;49.80
758;DHT22;363;48.764;9.172;2023-06-22T10:53:14;39.00;48.90
758;DHT22;363;48.764;9.172;2023-06-22T10:55:40;38.30;49.70
758;DHT22;363;48.764;9.172;2023-06-22T10:58:05;37.80;50.00
758;DHT22;363;48.764;9.172;2023-06-22T11:00:31;37.20;50.70
758;DHT22;363;48.764;9.172;2023-06-22T11:02:56;36.50;52.30
758;DHT22;363;48.764;9.172;2023-06-22T11:05:23;35.90;53.80
758;DHT22;363;48.764;9.172;2023-06-22T11:07:49;35.40;54.80
758;DHT22;363;48.764;9.172;2023-06-22T11:10:15;35.10;55.80
758;DHT22;363;48.764;9.172;2023-06-22T11:12:40;34.70;56.70
758;DHT22;363;48.764;9.172;2023-06-22T11:15:08;34.30;58.00
758;DHT22;363;48.764;9.172;2023-06-22T11:17:34;34.10;58.60
758;DHT22;363;48.764;9.172;2023-06-22T11:20:00;34.00;59.30
758;DHT22;363;48.764;9.172;2023-06-22T11:22:25;33.50;60.00
758;DHT22;363;48.764;9.172;2023-06-22T11:24:51;33.30;60.20
758;DHT22;363;48.764;9.172;2023-06-22T11:27:17;33.10;61.10
758;DHT22;363;48.764;9.172;2023-06-22T11:29:42;33.10;59.90
758;DHT22;363;48.764;9.172;2023-06-22T11:32:08;33.00;59.00
758;DHT22;363;48.764;9.172;2023-06-22T11:34:34;33.00;59.40
758;DHT22;363;48.764;9.172;2023-06-22T11:37:00;33.10;59.60
758;DHT22;363;48.764;9.172;2023-06-22T11:39:26;33.20;59.90
758;DHT22;363;48.764;9.172;2023-06-22T11:41:51;33.30;61.10
758;DHT22;363;48.764;9.172;2023-06-22T11:44:17;33.60;59.90
758;DHT22;363;48.764;9.172;2023-06-22T11:46:42;33.60;59.20
758;DHT22;363;48.764;9.172;2023-06-22T11:49:08;34.10;59.70
758;DHT22;363;48.764;9.172;2023-06-22T11:51:34;34.00;60.10
758;DHT22;363;48.764;9.172;2023-06-22T11:53:59;34.10;60.40
758;DHT22;363;48.764;9.172;2023-06-22T11:56:25;34.20;60.30
758;DHT22;363;48.764;9.172;2023-06-22T11:58:50;34.10;61.10
758;DHT22;363;48.764;9.172;2023-06-22T12:01:16;34.10;61.30
758;DHT22;363;48.764;9.172;2023-06-22T12:03:42;33.90;62.20
758;DHT22;363;48.764;9.172;2023-06-22T12:06:09;34.00;62.90
758;DHT22;363;48.764;9.172;2023-06-22T12:08:35;34.00;61.70
758;DHT22;363;48.764;9.172;2023-06-22T12:11:00;34.00;61.40
758;DHT22;363;48.764;9.172;2023-06-22T12:13:26;34.00;61.10
758;DHT22;363;48.764;9.172;2023-06-22T12:15:51;33.60;62.20
758;DHT22;363;48.764;9.172;2023-06-22T12:18:20;33.50;62.10
758;DHT22;363;48.764;9.172;2023-06-22T12:20:46;33.40;62.20
758;DHT22;363;48.764;9.172;2023-06-22T12:23:12;33.20;63.50
758;DHT22;363;48.764;9.172;2023-06-22T12:25:38;33.10;63.60
758;DHT22;363;48.764;9.172;2023-06-22T12:28:03;32.90;64.50
758;DHT22;363;48.764;9.172;2023-06-22T12:30:30;33.20;63.20
758;DHT22;363;48.764;9.172;2023-06-22T12:32:56;33.20;63.20
758;DHT22;363;48.764;9.172;2023-06-22T12:35:21;33.20;63.20
758;DHT22;363;48.764;9.172;2023-06-22T12:37:47;33.00;63.70
758;DHT22;363;48.764;9.172;2023-06-22T12:40:12;32.90;63.90
758;DHT22;363;48.764;9.172;2023-06-22T12:42:38;32.70;65.40
758;DHT22;363;48.764;9.172;2023-06-22T12:45:04;32.60;65.40
758;DHT22;363;48.764;9.172;2023-06-22T12:47:30;32.60;66.40
758;DHT22;363;48.764;9.172;2023-06-22T12:49:56;32.40;66.50
758;DHT22;363;48.764;9.172;2023-06-22T12:52:21;32.40;67.20
758;DHT22;363;48.764;9.172;2023-06-22T12:54:47;32.50;67.00
758;DHT22;363;48.764;9.172;2023-06-22T12:57:14;32.30;67.40
758;DHT22;363;48.764;9.172;2023-06-22T12:59:39;32.30;68.30
758;DHT22;363;48.764;9.172;2023-06-22T13:02:05;32.20;69.00
758;DHT22;363;48.764;9.172;2023-06-22T13:04:31;32.00;69.60
758;DHT22;363;48.764;9.172;2023-06-22T13:06:56;32.10;70.20
758;DHT22;363;48.764;9.172;2023-06-22T13:09:22;32.10;69.50
758;DHT22;363;48.764;9.172;2023-06-22T13:11:47;32.10;69.60
758;DHT22;363;48.764;9.172;2023-06-22T13:14:13;32.10;69.80
758;DHT22;363;48.764;9.172;2023-06-22T13:16:38;32.20;70.10
758;DHT22;363;48.764;9.172;2023-06-22T13:19:04;32.20;70.30
758;DHT22;363;48.764;9.172;2023-06-22T13:21:30;32.30;70.40
758;DHT22;363;48.764;9.172;2023-06-22T13:23:56;32.40;70.80
758;DHT22;363;48.764;9.172;2023-06-22T13:26:21;32.50;70.80
758;DHT22;363;48.764;9.172;2023-06-22T13:28:47;32.80;70.20
758;DHT22;363;48.764;9.172;2023-06-22T13:31:13;32.90;69.70
758;DHT22;363;48.764;9.172;2023-06-22T13:33:38;32.90;69.40
758;DHT22;363;48.764;9.172;2023-06-22T13:36:06;32.70;68.40
758;DHT22;363;48.764;9.172;2023-06-22T13:38:32;32.60;69.10
758;DHT22;363;48.764;9.172;2023-06-22T13:40:58;32.70;68.30
758;DHT22;363;48.764;9.172;2023-06-22T13:43:26;33.00;67.90
758;DHT22;363;48.764;9.172;2023-06-22T13:45:51;32.90;68.20
758;DHT22;363;48.764;9.172;2023-06-22T13:48:17;32.90;67.10
758;DHT22;363;48.764;9.172;2023-06-22T13:50:43;32.30;67.00
758;DHT22;363;48.764;9.172;2023-06-22T13:53:09;32.80;68.20
758;DHT22;363;48.764;9.172;2023-06-22T13:55:34;32.90;68.10
758;DHT22;363;48.764;9.172;2023-06-22T13:58:00;32.90;67.60
758;DHT22;363;48.764;9.172;2023-06-22T14:00:25;33.00;66.60
758;DHT22;363;48.764;9.172;2023-06-22T14:02:53;33.10;65.70
758;DHT22;363;48.764;9.172;2023-06-22T14:05:18;33.00;65.80
758;DHT22;363;48.764;9.172;2023-06-22T14:07:44;33.20;66.60
758;DHT22;363;48.764;9.172;2023-06-22T14:10:10;33.40;65.90
758;DHT22;363;48.764;9.172;2023-06-22T14:12:36;33.30;65.80
758;DHT22;363;48.764;9.172;2023-06-22T14:15:01;33.40;64.70
758;DHT22;363;48.764;9.172;2023-06-22T14:17:27;33.60;64.20
758;DHT22;363;48.764;9.172;2023-06-22T14:19:52;33.70;64.50
758;DHT22;363;48.764;9.172;2023-06-22T14:22:19;33.80;63.30
758;DHT22;363;48.764;9.172;2023-06-22T14:24:46;33.90;62.10
758;DHT22;363;48.764;9.172;2023-06-22T14:27:11;33.80;60.80
758;DHT22;363;48.764;9.172;2023-06-22T14:29:37;33.90;61.60
758;DHT22;363;48.764;9.172;2023-06-22T14:32:02;33.80;61.30
758;DHT22;363;48.764;9.172;2023-06-22T14:34:29;33.70;59.70
758;DHT22;363;48.764;9.172;2023-06-22T14:36:55;33.80;58.00
758;DHT22;363;48.764;9.172;2023-06-22T14:39:20;33.80;56.90
758;DHT22;363;48.764;9.172;2023-06-22T14:41:46;33.70;56.80
758;DHT22;363;48.764;9.172;2023-06-22T14:44:12;33.80;55.60
758;DHT22;363;48.764;9.172;2023-06-22T14:46:37;33.70;55.40
758;DHT22;363;48.764;9.172;2023-06-22T14:49:03;33.60;54.90
758;DHT22;363;48.764;9.172;2023-06-22T14:51:28;33.50;54.40
758;DHT22;363;48.764;9.172;2023-06-22T14:53:54;33.30;54.10
758;DHT22;363;48.764;9.172;2023-06-22T14:56:19;33.30;52.30
758;DHT22;363;48.764;9.172;2023-06-22T14:58:45;33.20;49.30
758;DHT22;363;48.764;9.172;2023-06-22T15:01:11;33.10;48.10
758;DHT22;363;48.764;9.172;2023-06-22T15:03:37;33.10;48.10
758;DHT22;363;48.764;9.172;2023-06-22T15:06:03;33.00;47.90
758;DHT22;363;48.764;9.172;2023-06-22T15:08:29;33.00;48.20
758;DHT22;363;48.764;9.172;2023-06-22T15:10:57;32.90;47.80
758;DHT22;363;48.764;9.172;2023-06-22T15:13:23;32.90;48.40
758;DHT22;363;48.764;9.172;2023-06-22T15:15:50;33.00;48.80
758;DHT22;363;48.764;9.172;2023-06-22T15:18:16;33.10;47.60
758;DHT22;363;48.764;9.172;2023-06-22T15:20:42;33.20;46.90
758;DHT22;363;48.764;9.172;2023-06-22T15:23:14;33.20;47.30
758;DHT22;363;48.764;9.172;2023-06-22T15:25:40;33.10;47.10
758;DHT22;363;48.764;9.172;2023-06-22T15:28:05;33.10;47.70
758;DHT22;363;48.764;9.172;2023-06-22T15:30:31;33.20;47.80
758;DHT22;363;48.764;9.172;2023-06-22T15:32:57;33.10;48.50
758;DHT22;363;48.764;9.172;2023-06-22T15:35:23;33.00;47.20
758;DHT22;363;48.764;9.172;2023-06-22T15:37:49;32.90;47.20
758;DHT22;363;48.764;9.172;2023-06-22T15:40:16;32.90;46.70
758;DHT22;363;48.764;9.172;2023-06-22T15:42:42;32.90;47.10
758;DHT22;363;48.764;9.172;2023-06-22T15:45:08;33.00;46.90
758;DHT22;363;48.764;9.172;2023-06-22T15:47:34;33.00;47.40
758;DHT22;363;48.764;9.172;2023-06-22T15:50:00;33.10;47.00
758;DHT22;363;48.764;9.172;2023-06-22T15:52:25;33.10;47.50
758;DHT22;363;48.764;9.172;2023-06-22T15:54:51;33.20;47.00
758;DHT22;363;48.764;9.172;2023-06-22T15:57:19;33.10;47.30
758;DHT22;363;48.764;9.172;2023-06-22T15:59:44;33.10;47.50
758;DHT22;363;48.764;9.172;2023-06-22T16:02:10;33.10;47.80
758;DHT22;363;48.764;9.172;2023-06-22T16:04:36;33.20;48.00
758;DHT22;363;48.764;9.172;2023-06-22T16:07:02;32.90;48.20
758;DHT22;363;48.764;9.172;2023-06-22T16:09:28;32.80;48.70
758;DHT22;363;48.764;9.172;2023-06-22T16:11:55;32.80;49.20
758;DHT22;363;48.764;9.172;2023-06-22T16:14:21;32.70;49.20
758;DHT22;363;48.764;9.172;2023-06-22T16:16:47;32.60;49.40
758;DHT22;363;48.764;9.172;2023-06-22T16:19:13;32.60;50.00
758;DHT22;363;48.764;9.172;2023-06-22T16:21:39;32.50;50.00
758;DHT22;363;48.764;9.172;2023-06-22T16:24:04;32.50;49.80
758;DHT22;363;48.764;9.172;2023-06-22T16:26:38;32.30;50.00
758;DHT22;363;48.764;9.172;2023-06-22T16:29:04;32.30;50.60
758;DHT22;363;48.764;9.172;2023-06-22T16:31:29;32.30;51.00